createdAt,value
2023-11-24T00:00:33.611Z,100.00
2023-11-24T00:03:00.946Z,100.00
2023-11-24T00:05:28.261Z,100.00
2023-11-24T00:07:55.534Z,100.00
2023-11-24T00:10:23.088Z,100.00
2023-11-24T00:12:50.565Z,100.00
2023-11-24T00:15:17.886Z,100.00
2023-11-24T00:17:45.090Z,100.00
2023-11-24T00:20:15.377Z,100.00
2023-11-24T00:22:42.762Z,100.00
2023-11-24T00:25:14.077Z,100.00
2023-11-24T00:27:41.663Z,100.00
2023-11-24T00:30:09.005Z,100.00
2023-11-24T00:32:36.589Z,100.00
2023-11-24T00:35:07.543Z,100.00
2023-11-24T00:37:34.949Z,100.00
2023-11-24T00:40:04.085Z,100.00
2023-11-24T00:42:31.526Z,100.00
2023-11-24T00:44:58.779Z,100.00
2023-11-24T00:47:27.473Z,100.00
2023-11-24T00:49:55.301Z,100.00
2023-11-24T00:52:22.574Z,100.00
2023-11-24T00:54:49.747Z,100.00
2023-11-24T00:57:16.928Z,100.00
2023-11-24T00:59:45.614Z,100.00
2023-11-24T01:02:15.573Z,100.00
2023-11-24T01:04:42.918Z,100.00
2023-11-24T01:07:11.162Z,100.00
2023-11-24T01:09:38.502Z,100.00
2023-11-24T01:12:06.390Z,100.00
2023-11-24T01:14:33.668Z,100.00
2023-11-24T01:17:01.590Z,100.00
2023-11-24T01:19:29.295Z,100.00
2023-11-24T01:21:56.626Z,100.00
2023-11-24T01:24:23.877Z,100.00
2023-11-24T01:26:51.215Z,100.00
2023-11-24T01:29:18.553Z,100.00
2023-11-24T01:31:46.012Z,100.00
2023-11-24T01:34:16.007Z,100.00
2023-11-24T01:36:46.092Z,100.00
2023-11-24T01:39:14.053Z,100.00
2023-11-24T01:41:41.713Z,100.00
2023-11-24T01:44:09.863Z,100.00
2023-11-24T01:46:38.534Z,100.00
2023-11-24T01:49:06.710Z,100.00
2023-11-24T01:51:34.703Z,100.00
2023-11-24T01:54:02.134Z,100.00
2023-11-24T01:56:32.199Z,100.00
2023-11-24T01:59:00.371Z,100.00
2023-11-24T02:01:30.521Z,100.00
2023-11-24T02:03:57.867Z,100.00
2023-11-24T02:06:25.369Z,100.00
2023-11-24T02:08:52.714Z,100.00
2023-11-24T02:11:20.097Z,100.00
2023-11-24T02:13:51.098Z,100.00
2023-11-24T02:16:19.861Z,100.00
2023-11-24T02:18:47.873Z,100.00
2023-11-24T02:21:15.346Z,100.00
2023-11-24T02:23:43.892Z,100.00
2023-11-24T02:26:11.531Z,100.00
2023-11-24T02:28:38.866Z,100.00
2023-11-24T02:31:08.329Z,100.00
2023-11-24T02:33:35.671Z,100.00
2023-11-24T02:36:07.161Z,100.00
2023-11-24T02:38:34.664Z,100.00
2023-11-24T02:41:02.585Z,100.00
2023-11-24T02:43:30.045Z,100.00
2023-11-24T02:45:57.213Z,100.00
2023-11-24T02:48:24.631Z,100.00
2023-11-24T02:50:51.988Z,100.00
2023-11-24T02:53:19.430Z,100.00
2023-11-24T02:55:46.649Z,100.00
2023-11-24T02:58:13.900Z,100.00
2023-11-24T03:00:41.041Z,100.00
2023-11-24T03:03:08.820Z,100.00
2023-11-24T03:05:36.278Z,100.00
2023-11-24T03:08:04.500Z,100.00
2023-11-24T03:10:32.006Z,100.00
2023-11-24T03:12:59.222Z,100.00
2023-11-24T03:15:27.236Z,100.00
2023-11-24T03:17:54.578Z,100.00
2023-11-24T03:20:22.776Z,100.00
2023-11-24T03:22:49.941Z,100.00
2023-11-24T03:25:17.407Z,100.00
2023-11-24T03:27:45.743Z,100.00
2023-11-24T03:30:14.613Z,100.00
2023-11-24T03:32:42.273Z,100.00
2023-11-24T03:35:09.867Z,100.00
2023-11-24T03:37:38.325Z,100.00
2023-11-24T03:40:06.862Z,100.00
2023-11-24T03:42:34.134Z,100.00
2023-11-24T03:45:02.559Z,100.00
2023-11-24T03:47:33.763Z,100.00
2023-11-24T03:50:01.171Z,100.00
2023-11-24T03:52:34.159Z,100.00
2023-11-24T03:55:01.568Z,100.00
2023-11-24T03:57:31.276Z,100.00
2023-11-24T03:59:59.547Z,100.00
2023-11-24T04:02:26.809Z,100.00
2023-11-24T04:04:55.275Z,100.00
2023-11-24T04:07:22.311Z,100.00
2023-11-24T04:09:49.739Z,100.00
2023-11-24T04:12:16.883Z,100.00
2023-11-24T04:14:44.108Z,100.00
2023-11-24T04:17:12.010Z,100.00
2023-11-24T04:19:39.563Z,100.00
2023-11-24T04:22:07.700Z,100.00
2023-11-24T04:24:34.928Z,100.00
2023-11-24T04:27:02.972Z,100.00
2023-11-24T04:29:31.891Z,100.00
2023-11-24T04:31:59.001Z,100.00
2023-11-24T04:34:26.540Z,100.00
2023-11-24T04:36:55.160Z,100.00
2023-11-24T04:39:22.510Z,100.00
2023-11-24T04:41:49.793Z,100.00
2023-11-24T04:44:16.839Z,100.00
2023-11-24T04:46:44.209Z,100.00
2023-11-24T04:49:11.877Z,100.00
2023-11-24T04:51:39.294Z,100.00
2023-11-24T04:54:06.521Z,100.00
2023-11-24T04:56:34.608Z,100.00
2023-11-24T04:59:01.751Z,100.00
2023-11-24T05:01:30.529Z,100.00
2023-11-24T05:04:00.612Z,100.00
2023-11-24T05:06:28.185Z,100.00
2023-11-24T05:08:55.422Z,100.00
2023-11-24T05:11:22.875Z,100.00
2023-11-24T05:13:50.562Z,100.00
2023-11-24T05:16:18.660Z,100.00
2023-11-24T05:18:45.860Z,100.00
2023-11-24T05:21:13.197Z,100.00
2023-11-24T05:23:40.407Z,100.00
2023-11-24T05:26:08.424Z,100.00
2023-11-24T05:28:35.761Z,100.00
2023-11-24T05:31:05.135Z,100.00
2023-11-24T05:33:34.281Z,100.00
2023-11-24T05:36:01.746Z,100.00
2023-11-24T05:38:29.043Z,100.00
2023-11-24T05:40:56.183Z,100.00
2023-11-24T05:43:23.316Z,100.00
2023-11-24T05:45:50.569Z,100.00
2023-11-24T05:48:18.172Z,100.00
2023-11-24T05:50:45.425Z,100.00
2023-11-24T05:53:12.773Z,100.00
2023-11-24T05:55:40.444Z,100.00
2023-11-24T05:58:07.771Z,100.00
2023-11-24T06:00:35.018Z,100.00
2023-11-24T06:03:02.333Z,100.00
2023-11-24T06:05:31.335Z,100.00
2023-11-24T06:07:59.349Z,100.00
2023-11-24T06:10:26.551Z,100.00
2023-11-24T06:12:53.828Z,100.00
2023-11-24T06:15:21.268Z,100.00
2023-11-24T06:17:49.833Z,100.00
2023-11-24T06:20:17.756Z,100.00
2023-11-24T06:22:45.888Z,100.00
2023-11-24T06:25:16.220Z,100.00
2023-11-24T06:27:45.693Z,100.00
2023-11-24T06:30:13.685Z,100.00
2023-11-24T06:32:41.077Z,100.00
2023-11-24T06:35:08.655Z,100.00
2023-11-24T06:37:35.896Z,100.00
2023-11-24T06:40:06.624Z,100.00
2023-11-24T06:42:33.814Z,100.00
2023-11-24T06:45:01.360Z,100.00
2023-11-24T06:47:29.052Z,100.00
2023-11-24T06:49:57.133Z,100.00
2023-11-24T06:52:24.686Z,100.00
2023-11-24T06:54:51.949Z,100.00
2023-11-24T06:57:19.133Z,100.00
2023-11-24T06:59:46.189Z,100.00
2023-11-24T07:02:13.432Z,100.00
2023-11-24T07:04:41.142Z,100.00
2023-11-24T07:07:08.426Z,100.00
2023-11-24T07:09:35.564Z,100.00
2023-11-24T07:12:03.658Z,100.00
2023-11-24T07:14:30.957Z,100.00
2023-11-24T07:16:58.247Z,100.00
2023-11-24T07:19:25.574Z,100.00
2023-11-24T07:21:52.884Z,100.00
2023-11-24T07:24:20.012Z,100.00
2023-11-24T07:26:47.210Z,100.00
2023-11-24T07:29:15.583Z,100.00
2023-11-24T07:31:42.802Z,100.00
2023-11-24T07:34:11.975Z,100.00
2023-11-24T07:36:39.268Z,100.00
2023-11-24T07:39:07.445Z,100.00
2023-11-24T07:41:34.671Z,100.00
2023-11-24T07:44:03.061Z,100.00
2023-11-24T07:46:30.317Z,100.00
2023-11-24T07:48:58.542Z,100.00
2023-11-24T07:51:25.781Z,100.00
2023-11-24T07:53:52.944Z,100.00
2023-11-24T07:56:22.862Z,100.00
2023-11-24T07:58:50.104Z,100.00
2023-11-24T08:01:17.582Z,100.00
2023-11-24T08:03:45.434Z,100.00
2023-11-24T08:06:12.811Z,100.00
2023-11-24T08:08:40.051Z,100.00
2023-11-24T08:11:07.148Z,100.00
2023-11-24T08:13:34.503Z,100.00
2023-11-24T08:16:02.321Z,99.60
2023-11-24T08:18:29.847Z,98.09
2023-11-24T08:20:59.313Z,96.15
2023-11-24T08:23:26.417Z,95.83
2023-11-24T08:25:53.774Z,97.67
2023-11-24T08:28:20.793Z,100.00
2023-11-24T08:30:50.276Z,99.51
2023-11-24T08:33:17.845Z,98.53
2023-11-24T08:35:44.961Z,100.00
2023-11-24T08:38:13.172Z,100.00
2023-11-24T08:40:40.455Z,100.00
2023-11-24T08:43:07.708Z,100.00
2023-11-24T08:45:35.701Z,99.55
2023-11-24T08:48:03.167Z,98.38
2023-11-24T08:50:30.331Z,98.28
2023-11-24T08:52:57.397Z,99.43
2023-11-24T08:55:24.591Z,98.72
2023-11-24T08:57:52.639Z,97.27
2023-11-24T09:00:39.485Z,97.23
2023-11-24T09:03:06.763Z,96.99
2023-11-24T09:05:34.621Z,97.79
2023-11-24T09:08:01.826Z,98.28
2023-11-24T09:10:29.935Z,97.74
2023-11-24T09:12:57.262Z,98.24
2023-11-24T09:15:25.417Z,98.43
2023-11-24T09:17:52.831Z,99.00
2023-11-24T09:20:20.096Z,98.37
2023-11-24T09:22:47.250Z,98.97
2023-11-24T09:25:16.941Z,99.16
2023-11-24T09:27:46.953Z,99.55
2023-11-24T09:30:14.412Z,100.00
2023-11-24T09:32:44.315Z,100.00
2023-11-24T09:35:12.693Z,99.59
2023-11-24T09:37:39.983Z,97.54
2023-11-24T09:40:17.515Z,95.79
2023-11-24T09:42:47.262Z,97.35
2023-11-24T09:45:19.175Z,97.52
2023-11-24T09:47:51.803Z,97.42
2023-11-24T09:50:25.210Z,97.49
2023-11-24T09:52:58.750Z,98.82
2023-11-24T09:55:28.216Z,98.92
2023-11-24T09:57:58.029Z,99.35
2023-11-24T10:00:27.497Z,99.79
2023-11-24T10:03:00.181Z,99.26
2023-11-24T10:05:27.892Z,99.64
2023-11-24T10:07:56.353Z,98.90
2023-11-24T10:10:25.611Z,99.25
2023-11-24T10:12:55.070Z,100.00
2023-11-24T10:15:22.562Z,100.00
2023-11-24T10:17:50.298Z,100.00
2023-11-24T10:20:30.111Z,100.00
2023-11-24T10:23:00.109Z,100.00
2023-11-24T10:25:30.262Z,100.00
2023-11-24T10:28:00.779Z,100.00
2023-11-24T10:30:27.936Z,100.00
2023-11-24T10:32:57.773Z,100.00
2023-11-24T10:35:26.240Z,100.00
2023-11-24T10:37:54.077Z,100.00
2023-11-24T10:40:22.264Z,100.00
2023-11-24T10:42:51.786Z,100.00
2023-11-24T10:45:22.542Z,100.00
2023-11-24T10:48:01.536Z,100.00
2023-11-24T10:50:30.651Z,100.00
2023-11-24T10:53:16.353Z,100.00
2023-11-24T10:55:46.717Z,100.00
2023-11-24T10:58:14.738Z,100.00
2023-11-24T11:00:42.204Z,100.00
2023-11-24T11:03:13.743Z,100.00
2023-11-24T11:06:18.509Z,100.00
2023-11-24T11:08:58.406Z,100.00
2023-11-24T11:11:40.960Z,100.00
2023-11-24T11:14:09.561Z,100.00
2023-11-24T11:16:38.716Z,100.00
2023-11-24T11:19:35.018Z,100.00
2023-11-24T11:22:02.849Z,100.00
2023-11-24T11:24:30.391Z,100.00
2023-11-24T11:26:59.318Z,100.00
2023-11-24T11:29:30.144Z,100.00
2023-11-24T11:31:57.847Z,100.00
2023-11-24T11:34:33.225Z,100.00
2023-11-24T11:37:13.294Z,100.00
2023-11-24T11:39:55.232Z,100.00
2023-11-24T11:42:33.202Z,100.00
2023-11-24T11:45:11.791Z,100.00
2023-11-24T11:48:00.081Z,100.00
2023-11-24T11:50:27.373Z,100.00
2023-11-24T11:52:59.242Z,100.00
2023-11-24T11:55:26.891Z,100.00
2023-11-24T11:57:55.435Z,100.00
2023-11-24T12:00:26.890Z,100.00
2023-11-24T12:02:56.368Z,100.00
2023-11-24T12:05:24.572Z,100.00
2023-11-24T12:07:54.994Z,100.00
2023-11-24T12:10:22.417Z,100.00
2023-11-24T12:12:50.206Z,100.00
2023-11-24T12:15:19.145Z,100.00
2023-11-24T12:17:47.222Z,100.00
2023-11-24T12:20:16.355Z,100.00
2023-11-24T12:22:45.077Z,100.00
2023-11-24T12:25:14.354Z,100.00
2023-11-24T12:27:45.795Z,100.00
2023-11-24T12:30:16.209Z,100.00
2023-11-24T12:32:44.532Z,100.00
2023-11-24T12:35:12.673Z,100.00
2023-11-24T12:37:45.581Z,100.00
2023-11-24T12:40:13.283Z,100.00
2023-11-24T12:42:44.645Z,97.87
2023-11-24T12:45:13.811Z,100.00
2023-11-24T12:47:42.611Z,100.00
2023-11-24T12:50:14.821Z,100.00
2023-11-24T12:52:46.932Z,100.00
2023-11-24T12:55:14.358Z,100.00
2023-11-24T12:57:45.432Z,100.00
2023-11-24T13:00:18.059Z,99.46
2023-11-24T13:02:46.638Z,97.49
2023-11-24T13:05:14.907Z,99.06
2023-11-24T13:07:43.070Z,98.37
2023-11-24T13:10:12.701Z,100.00
2023-11-24T13:12:40.764Z,100.00
2023-11-24T13:15:09.176Z,99.05
2023-11-24T13:17:37.134Z,99.36
2023-11-24T13:20:05.155Z,100.00
2023-11-24T13:22:35.398Z,100.00
2023-11-24T13:25:02.922Z,100.00
2023-11-24T13:27:32.936Z,100.00
2023-11-24T13:30:00.854Z,100.00
2023-11-24T13:32:29.642Z,100.00
2023-11-24T13:34:58.033Z,98.99
2023-11-24T13:37:25.253Z,99.94
2023-11-24T13:39:52.720Z,99.92
2023-11-24T13:42:21.506Z,98.89
2023-11-24T13:44:49.280Z,99.71
2023-11-24T13:47:17.574Z,100.00
2023-11-24T13:49:47.635Z,100.00
2023-11-24T13:52:16.182Z,100.00
2023-11-24T13:54:43.702Z,100.00
2023-11-24T13:57:11.151Z,100.00
2023-11-24T13:59:38.309Z,100.00
2023-11-24T14:02:06.894Z,100.00
2023-11-24T14:04:34.850Z,100.00
2023-11-24T14:07:02.164Z,100.00
2023-11-24T14:09:41.138Z,100.00
2023-11-24T14:12:10.591Z,100.00
2023-11-24T14:14:38.432Z,100.00
2023-11-24T14:17:05.612Z,100.00
2023-11-24T14:19:32.816Z,100.00
2023-11-24T14:22:01.977Z,100.00
2023-11-24T14:24:29.234Z,100.00
2023-11-24T14:26:56.767Z,100.00
2023-11-24T14:29:24.576Z,100.00
2023-11-24T14:31:51.660Z,100.00
2023-11-24T14:34:20.356Z,100.00
2023-11-24T14:36:47.784Z,100.00
2023-11-24T14:39:27.151Z,100.00
2023-11-24T14:41:58.704Z,100.00
2023-11-24T14:44:26.110Z,100.00
2023-11-24T14:46:53.660Z,100.00
2023-11-24T14:49:21.043Z,100.00
2023-11-24T14:51:49.900Z,100.00
2023-11-24T14:54:19.434Z,100.00
2023-11-24T14:56:49.383Z,100.00
2023-11-24T14:59:18.098Z,100.00
2023-11-24T15:01:45.644Z,100.00
2023-11-24T15:04:20.128Z,100.00
2023-11-24T15:06:52.156Z,100.00
2023-11-24T15:09:20.411Z,100.00
2023-11-24T15:11:53.607Z,100.00
2023-11-24T15:14:33.608Z,100.00
2023-11-24T15:17:17.203Z,100.00
2023-11-24T15:19:47.005Z,100.00
2023-11-24T15:22:20.379Z,100.00
2023-11-24T15:24:54.621Z,100.00
2023-11-24T15:27:22.154Z,100.00
2023-11-24T15:29:50.204Z,100.00
2023-11-24T15:32:21.170Z,100.00
2023-11-24T15:34:48.499Z,100.00
2023-11-24T15:37:15.566Z,100.00
2023-11-24T15:39:44.035Z,100.00
2023-11-24T15:42:15.997Z,100.00
2023-11-24T15:44:45.200Z,100.00
2023-11-24T15:47:12.559Z,100.00
2023-11-24T15:49:43.446Z,100.00
2023-11-24T15:52:14.762Z,100.00
2023-11-24T15:54:43.815Z,100.00
2023-11-24T15:57:11.418Z,100.00
2023-11-24T15:59:44.232Z,100.00
2023-11-24T16:02:15.631Z,100.00
2023-11-24T16:04:46.495Z,100.00
2023-11-24T16:07:18.735Z,100.00
2023-11-24T16:09:46.787Z,100.00
2023-11-24T16:12:15.417Z,100.00
2023-11-24T16:14:45.130Z,100.00
2023-11-24T16:17:13.748Z,100.00
2023-11-24T16:19:41.291Z,100.00
2023-11-24T16:22:11.732Z,100.00
2023-11-24T16:24:41.071Z,100.00
2023-11-24T16:27:10.159Z,100.00
2023-11-24T16:29:37.209Z,100.00
2023-11-24T16:32:05.015Z,100.00
2023-11-24T16:34:32.348Z,100.00
2023-11-24T16:37:00.155Z,100.00
2023-11-24T16:39:30.300Z,100.00
2023-11-24T16:41:58.604Z,100.00
2023-11-24T16:44:26.373Z,100.00
2023-11-24T16:46:59.164Z,100.00
2023-11-24T16:49:29.339Z,100.00
2023-11-24T16:51:56.769Z,100.00
2023-11-24T16:54:24.158Z,100.00
2023-11-24T16:56:51.479Z,100.00
2023-11-24T16:59:21.689Z,100.00
2023-11-24T17:01:51.363Z,100.00
2023-11-24T17:04:19.378Z,100.00
2023-11-24T17:06:51.339Z,100.00
2023-11-24T17:09:20.254Z,100.00
2023-11-24T17:11:47.938Z,100.00
2023-11-24T17:14:15.758Z,100.00
2023-11-24T17:16:44.530Z,100.00
2023-11-24T17:19:17.125Z,100.00
2023-11-24T17:21:45.554Z,100.00
2023-11-24T17:24:13.244Z,100.00
2023-11-24T17:26:41.568Z,100.00
2023-11-24T17:29:14.698Z,100.00
2023-11-24T17:31:44.033Z,100.00
2023-11-24T17:34:15.767Z,100.00
2023-11-24T17:36:43.265Z,100.00
2023-11-24T17:39:12.814Z,100.00
2023-11-24T17:41:40.866Z,100.00
2023-11-24T17:44:12.727Z,100.00
2023-11-24T17:46:41.219Z,100.00
2023-11-24T17:49:12.733Z,100.00
2023-11-24T17:51:42.496Z,100.00
2023-11-24T17:54:11.187Z,100.00
2023-11-24T17:56:38.555Z,100.00
2023-11-24T17:59:06.902Z,100.00
2023-11-24T18:01:34.672Z,100.00
2023-11-24T18:04:02.049Z,100.00
2023-11-24T18:06:30.789Z,100.00
2023-11-24T18:08:58.807Z,100.00
2023-11-24T18:11:32.876Z,100.00
2023-11-24T18:14:01.157Z,100.00
2023-11-24T18:16:29.164Z,100.00
2023-11-24T18:18:56.535Z,100.00
2023-11-24T18:21:25.960Z,100.00
2023-11-24T18:23:53.338Z,100.00
2023-11-24T18:26:21.142Z,100.00
2023-11-24T18:28:50.541Z,100.00
2023-11-24T18:31:18.001Z,100.00
2023-11-24T18:33:45.579Z,100.00
2023-11-24T18:36:13.092Z,100.00
2023-11-24T18:38:40.875Z,100.00
2023-11-24T18:41:09.364Z,100.00
2023-11-24T18:43:40.313Z,100.00
2023-11-24T18:46:09.173Z,100.00
2023-11-24T18:48:36.795Z,100.00
2023-11-24T18:51:04.199Z,100.00
2023-11-24T18:53:31.484Z,100.00
2023-11-24T18:55:59.653Z,100.00
2023-11-24T18:58:27.090Z,100.00
2023-11-24T19:00:54.519Z,100.00
2023-11-24T19:03:21.799Z,100.00
2023-11-24T19:05:49.377Z,100.00
2023-11-24T19:08:16.843Z,100.00
2023-11-24T19:10:44.628Z,100.00
2023-11-24T19:13:16.899Z,100.00
2023-11-24T19:15:47.049Z,100.00
2023-11-24T19:18:14.993Z,100.00
2023-11-24T19:20:42.996Z,100.00
2023-11-24T19:23:10.626Z,100.00
2023-11-24T19:25:38.169Z,100.00
2023-11-24T19:28:05.570Z,100.00
2023-11-24T19:30:35.180Z,100.00
2023-11-24T19:33:03.064Z,100.00
2023-11-24T19:35:30.525Z,100.00
2023-11-24T19:37:57.869Z,100.00
2023-11-24T19:40:25.413Z,100.00
2023-11-24T19:42:53.082Z,100.00
2023-11-24T19:45:20.513Z,100.00
2023-11-24T19:47:48.432Z,100.00
2023-11-24T19:50:15.852Z,99.92
2023-11-24T19:52:43.168Z,100.00
2023-11-24T19:55:10.462Z,100.00
2023-11-24T19:57:37.813Z,99.87
2023-11-24T20:00:09.957Z,100.00
2023-11-24T20:02:38.232Z,100.00
2023-11-24T20:05:07.151Z,100.00
2023-11-24T20:07:34.579Z,100.00
2023-11-24T20:10:02.128Z,100.00
2023-11-24T20:12:32.229Z,100.00
2023-11-24T20:14:59.497Z,100.00
2023-11-24T20:17:26.861Z,100.00
2023-11-24T20:19:54.413Z,100.00
2023-11-24T20:22:21.694Z,100.00
2023-11-24T20:24:49.267Z,100.00
2023-11-24T20:27:18.036Z,99.81
2023-11-24T20:29:45.938Z,100.00
2023-11-24T20:32:13.788Z,100.00
2023-11-24T20:34:41.169Z,100.00
2023-11-24T20:37:09.063Z,100.00
2023-11-24T20:39:36.241Z,100.00
2023-11-24T20:42:03.638Z,100.00
2023-11-24T20:44:33.239Z,100.00
2023-11-24T20:47:01.466Z,99.75
2023-11-24T20:49:29.359Z,98.94
2023-11-24T20:51:58.409Z,99.96
2023-11-24T20:54:46.152Z,98.31
2023-11-24T20:57:14.506Z,97.86
2023-11-24T20:59:41.762Z,97.75
2023-11-24T21:02:09.369Z,97.90
2023-11-24T21:04:36.840Z,98.30
2023-11-24T21:07:04.360Z,97.25
2023-11-24T21:09:32.101Z,97.74
2023-11-24T21:11:59.581Z,96.51
2023-11-24T21:14:27.709Z,98.32
2023-11-24T21:16:55.582Z,98.17
2023-11-24T21:19:22.780Z,97.54
2023-11-24T21:21:50.533Z,96.09
2023-11-24T21:24:17.945Z,96.72
2023-11-24T21:26:45.105Z,97.29
2023-11-24T21:29:12.563Z,97.40
2023-11-24T21:31:39.819Z,97.60
2023-11-24T21:34:07.576Z,97.20
2023-11-24T21:36:36.106Z,96.88
2023-11-24T21:39:06.055Z,93.85
2023-11-24T21:41:34.943Z,93.90
2023-11-24T21:44:02.396Z,93.32
2023-11-24T21:46:29.730Z,92.09
2023-11-24T21:48:57.128Z,90.28
2023-11-24T21:51:24.360Z,90.64
2023-11-24T21:53:52.038Z,90.17
2023-11-24T21:56:27.433Z,90.28
2023-11-24T21:58:54.944Z,89.93
2023-11-24T22:01:23.818Z,90.41
2023-11-24T22:03:53.375Z,89.78
2023-11-24T22:06:25.443Z,89.84
2023-11-24T22:08:53.339Z,92.48
2023-11-24T22:11:20.616Z,92.89
2023-11-24T22:13:47.984Z,92.58
2023-11-24T22:16:15.239Z,89.64
2023-11-24T22:18:42.461Z,89.56
2023-11-24T22:21:09.742Z,86.83
2023-11-24T22:23:36.972Z,90.41
2023-11-24T22:26:04.294Z,90.74
2023-11-24T22:28:31.519Z,89.29
2023-11-24T22:30:58.841Z,89.10
2023-11-24T22:33:26.243Z,88.43
2023-11-24T22:35:53.471Z,87.17
2023-11-24T22:38:20.684Z,87.04
2023-11-24T22:40:49.568Z,87.61
2023-11-24T22:43:16.982Z,84.79
2023-11-24T22:45:44.303Z,84.76
2023-11-24T22:48:12.467Z,84.01
2023-11-24T22:50:39.889Z,84.55
2023-11-24T22:53:07.085Z,84.37
2023-11-24T22:55:34.573Z,82.30
2023-11-24T22:58:01.926Z,79.04
2023-11-24T23:00:41.200Z,77.81
2023-11-24T23:03:13.323Z,79.19
2023-11-24T23:05:40.768Z,82.84
2023-11-24T23:08:08.049Z,81.74
2023-11-24T23:10:35.487Z,82.40
2023-11-24T23:13:04.486Z,80.08
2023-11-24T23:15:32.642Z,81.26
2023-11-24T23:18:01.380Z,78.91
2023-11-24T23:20:29.408Z,76.17
2023-11-24T23:22:56.644Z,75.45
2023-11-24T23:25:24.831Z,73.67
2023-11-24T23:27:52.288Z,73.48
2023-11-24T23:30:19.622Z,74.84
2023-11-24T23:32:46.882Z,75.71
2023-11-24T23:35:14.474Z,74.81
2023-11-24T23:37:45.318Z,76.28
2023-11-24T23:40:15.205Z,78.05
2023-11-24T23:42:46.432Z,79.17
2023-11-24T23:45:15.318Z,79.55
2023-11-24T23:47:43.166Z,77.97
2023-11-24T23:50:10.878Z,77.47
2023-11-24T23:52:38.144Z,77.84
2023-11-24T23:55:06.063Z,77.30
2023-11-24T23:57:38.329Z,77.02
